createdAt,value
2019-02-16T00:01:59.776Z,23.83
2019-02-16T00:04:31.066Z,20.20
2019-02-16T00:07:02.237Z,18.90
2019-02-16T00:09:34.064Z,17.23
2019-02-16T00:12:07.930Z,17.07
2019-02-16T00:14:38.034Z,18.37
2019-02-16T00:17:09.728Z,15.70
2019-02-16T00:19:39.760Z,14.57
2019-02-16T00:22:09.784Z,14.67
2019-02-16T00:24:39.892Z,14.53
2019-02-16T00:27:10.040Z,12.27
2019-02-16T00:29:41.252Z,11.93
2019-02-16T00:32:12.355Z,12.77
2019-02-16T00:34:45.527Z,19.07
2019-02-16T00:37:15.718Z,17.03
2019-02-16T00:39:48.630Z,17.70
2019-02-16T00:42:18.627Z,18.53
2019-02-16T00:44:48.741Z,20.53
2019-02-16T00:47:18.878Z,19.90
2019-02-16T00:49:51.676Z,21.17
2019-02-16T00:52:22.933Z,20.43
2019-02-16T00:54:59.105Z,17.43
2019-02-16T00:57:30.173Z,18.60
2019-02-16T01:00:02.589Z,14.17
2019-02-16T01:02:32.635Z,16.47
2019-02-16T01:05:02.720Z,14.70
2019-02-16T01:07:32.797Z,17.20
2019-02-16T01:10:06.941Z,16.90
2019-02-16T01:12:37.328Z,17.90
2019-02-16T01:15:11.950Z,19.80
2019-02-16T01:17:43.185Z,19.87
2019-02-16T01:20:13.609Z,16.37
2019-02-16T01:22:43.715Z,15.87
2019-02-16T01:25:22.857Z,16.93
2019-02-16T01:27:54.480Z,13.80
2019-02-16T01:30:25.570Z,13.23
2019-02-16T01:32:55.664Z,11.47
2019-02-16T01:35:25.790Z,8.73
2019-02-16T01:37:59.384Z,8.63
2019-02-16T01:40:29.667Z,8.27
2019-02-16T01:43:03.456Z,7.23
2019-02-16T01:45:38.943Z,7.50
2019-02-16T01:48:09.047Z,8.37
2019-02-16T01:50:39.130Z,8.17
2019-02-16T01:53:09.212Z,8.20
2019-02-16T01:55:39.278Z,10.30
2019-02-16T01:58:09.368Z,11.93
2019-02-16T02:00:43.500Z,9.60
2019-02-16T02:03:14.791Z,8.77
2019-02-16T02:05:44.928Z,10.80
2019-02-16T02:08:15.219Z,14.00
2019-02-16T02:10:45.304Z,13.87
2019-02-16T02:13:18.142Z,14.07
2019-02-16T02:15:49.659Z,14.10
2019-02-16T02:18:19.731Z,15.27
2019-02-16T02:20:49.828Z,16.37
2019-02-16T02:23:23.171Z,18.30
2019-02-16T02:25:54.521Z,19.27
2019-02-16T02:28:32.192Z,20.80
2019-02-16T02:31:00.818Z,20.73
2019-02-16T02:33:32.704Z,19.80
2019-02-16T02:36:02.797Z,22.33
2019-02-16T02:38:33.138Z,22.43
2019-02-16T02:41:04.344Z,22.10
2019-02-16T02:43:34.432Z,19.60
2019-02-16T02:46:04.504Z,22.77
2019-02-16T02:48:34.592Z,21.10
2019-02-16T02:51:04.586Z,22.17
2019-02-16T02:53:36.591Z,21.57
2019-02-16T02:56:08.357Z,21.10
2019-02-16T02:58:39.521Z,20.33
2019-02-16T03:01:14.140Z,21.37
2019-02-16T03:03:48.173Z,20.83
2019-02-16T03:06:22.677Z,17.83
2019-02-16T03:08:52.765Z,20.77
2019-02-16T03:11:22.800Z,20.40
2019-02-16T03:13:52.894Z,21.37
2019-02-16T03:16:23.054Z,20.83
2019-02-16T03:18:57.296Z,19.63
2019-02-16T03:21:29.154Z,19.17
2019-02-16T03:24:00.261Z,18.23
2019-02-16T03:27:11.695Z,18.43
2019-02-16T03:30:38.950Z,14.87
2019-02-16T03:33:48.622Z,13.03
2019-02-16T03:36:52.937Z,12.93
2019-02-16T03:39:30.545Z,12.03
2019-02-16T03:42:00.627Z,10.93
2019-02-16T03:44:31.964Z,9.50
2019-02-16T03:47:04.813Z,11.13
2019-02-16T03:49:38.395Z,12.70
2019-02-16T03:52:14.171Z,16.13
2019-02-16T03:54:43.228Z,16.90
2019-02-16T03:57:13.309Z,18.30
2019-02-16T03:59:44.441Z,17.13
2019-02-16T04:02:15.800Z,19.03
2019-02-16T04:04:47.303Z,28.10
2019-02-16T04:07:18.633Z,20.67
2019-02-16T04:09:48.632Z,18.97
2019-02-16T04:12:21.544Z,19.40
2019-02-16T04:14:51.616Z,18.17
2019-02-16T04:17:21.700Z,21.77
2019-02-16T04:19:53.341Z,21.93
2019-02-16T04:22:25.192Z,21.17
2019-02-16T04:24:55.398Z,18.70
2019-02-16T04:27:25.545Z,17.20
2019-02-16T04:29:55.691Z,15.87
2019-02-16T04:32:27.001Z,14.57
2019-02-16T04:34:59.796Z,13.37
2019-02-16T04:37:29.808Z,13.43
2019-02-16T04:39:59.883Z,14.87
2019-02-16T04:42:29.955Z,14.27
2019-02-16T04:45:04.538Z,14.20
2019-02-16T04:47:31.761Z,15.70
2019-02-16T04:50:01.885Z,15.47
2019-02-16T04:52:35.183Z,14.40
2019-02-16T04:55:04.715Z,17.03
2019-02-16T04:57:36.027Z,18.50
2019-02-16T05:00:06.437Z,18.03
2019-02-16T05:02:36.477Z,16.30
2019-02-16T05:05:09.487Z,15.83
2019-02-16T05:07:41.570Z,12.17
2019-02-16T05:10:17.859Z,12.67
2019-02-16T05:12:47.966Z,14.20
2019-02-16T05:15:18.375Z,17.13
2019-02-16T05:17:50.156Z,15.93
2019-02-16T05:20:21.521Z,17.23
2019-02-16T05:22:51.610Z,17.40
2019-02-16T05:25:21.680Z,17.97
2019-02-16T05:27:51.765Z,17.80
2019-02-16T05:30:21.848Z,18.57
2019-02-16T05:32:53.637Z,14.07
2019-02-16T05:35:23.633Z,14.97
2019-02-16T05:37:53.705Z,12.80
2019-02-16T05:40:23.745Z,15.70
2019-02-16T05:42:53.842Z,15.40
2019-02-16T05:45:23.923Z,14.80
2019-02-16T05:47:55.589Z,15.57
2019-02-16T05:50:27.240Z,15.93
2019-02-16T05:52:59.277Z,16.57
2019-02-16T05:55:29.051Z,19.53
2019-02-16T05:58:01.829Z,21.67
2019-02-16T06:00:33.527Z,19.43
2019-02-16T06:03:08.474Z,17.10
2019-02-16T06:05:40.912Z,17.10
2019-02-16T06:08:16.359Z,17.20
2019-02-16T06:10:48.192Z,18.07
2019-02-16T06:13:18.178Z,21.60
2019-02-16T06:15:48.253Z,20.77
2019-02-16T06:18:20.260Z,17.50
2019-02-16T06:20:51.509Z,17.10
2019-02-16T06:23:21.538Z,19.13
2019-02-16T06:25:51.638Z,18.53
2019-02-16T06:28:23.536Z,18.30
2019-02-16T06:30:53.704Z,21.33
2019-02-16T06:33:25.381Z,22.60
2019-02-16T06:36:00.887Z,14.70
2019-02-16T06:38:32.640Z,13.60
2019-02-16T06:41:02.792Z,12.60
2019-02-16T06:43:33.046Z,12.90
2019-02-16T06:46:04.293Z,13.77
2019-02-16T06:48:37.160Z,15.20
2019-02-16T06:51:07.348Z,16.53
2019-02-16T06:53:38.609Z,12.90
2019-02-16T06:56:34.000Z,12.80
2019-02-16T06:59:04.117Z,12.70
2019-02-16T07:01:34.206Z,15.10
2019-02-16T07:04:04.220Z,15.37
2019-02-16T07:06:34.402Z,14.23
2019-02-16T07:09:08.442Z,14.60
2019-02-16T07:11:38.437Z,11.27
2019-02-16T07:14:09.253Z,11.23
2019-02-16T07:16:59.405Z,11.70
2019-02-16T07:19:44.426Z,10.40
2019-02-16T07:22:18.972Z,10.00
2019-02-16T07:24:46.791Z,9.50
2019-02-16T07:27:16.888Z,10.57
2019-02-16T07:29:48.499Z,8.97
2019-02-16T07:32:21.375Z,9.53
2019-02-16T07:34:51.465Z,11.73
2019-02-16T07:37:25.602Z,12.63
2019-02-16T07:39:59.020Z,12.03
2019-02-16T07:42:32.188Z,11.63
2019-02-16T07:45:23.333Z,12.13
2019-02-16T07:48:31.201Z,11.83
2019-02-16T07:51:27.344Z,11.80
2019-02-16T07:54:16.393Z,9.83
2019-02-16T07:56:54.264Z,11.00
2019-02-16T07:59:44.895Z,11.70
2019-02-16T08:02:19.801Z,9.80
2019-02-16T08:05:11.672Z,9.90
2019-02-16T08:07:54.803Z,9.63
2019-02-16T08:10:52.771Z,10.00
2019-02-16T08:13:48.047Z,10.40
2019-02-16T08:16:41.255Z,11.67
2019-02-16T08:19:33.499Z,12.77
2019-02-16T08:22:37.739Z,13.40
2019-02-16T08:25:39.075Z,11.33
2019-02-16T08:28:19.428Z,10.60
2019-02-16T08:30:59.310Z,11.83
2019-02-16T08:33:42.997Z,10.27
2019-02-16T08:36:32.125Z,11.27
2019-02-16T08:39:23.607Z,11.80
2019-02-16T08:42:14.939Z,11.57
2019-02-16T08:45:06.939Z,10.57
2019-02-16T08:48:00.149Z,10.10
2019-02-16T08:50:54.318Z,10.00
2019-02-16T08:53:34.619Z,10.00
2019-02-16T08:56:32.644Z,10.83
2019-02-16T08:59:30.774Z,9.60
2019-02-16T09:02:12.880Z,9.43
2019-02-16T09:04:56.276Z,11.50
2019-02-16T09:07:51.821Z,12.47
2019-02-16T09:10:59.074Z,10.43
2019-02-16T09:13:38.727Z,11.30
2019-02-16T09:16:38.456Z,10.77
2019-02-16T09:19:26.010Z,12.37
2019-02-16T09:22:21.626Z,10.70
2019-02-16T09:25:12.198Z,10.17
2019-02-16T09:27:59.553Z,9.67
2019-02-16T09:30:52.513Z,9.83
2019-02-16T09:33:41.590Z,12.70
2019-02-16T09:36:20.492Z,10.50
2019-02-16T09:39:05.799Z,9.93
2019-02-16T09:41:49.420Z,9.67
2019-02-16T09:44:42.417Z,9.23
2019-02-16T09:47:30.954Z,8.60
2019-02-16T09:50:22.745Z,10.03
2019-02-16T09:53:10.809Z,10.03
2019-02-16T09:55:57.931Z,8.70
2019-02-16T09:58:52.808Z,10.10
2019-02-16T10:01:40.555Z,9.53
2019-02-16T10:04:34.296Z,10.60
2019-02-16T10:07:30.692Z,11.73
2019-02-16T10:10:32.505Z,10.30
2019-02-16T10:13:30.617Z,10.53
2019-02-16T10:16:31.832Z,9.20
2019-02-16T10:19:24.967Z,8.70
2019-02-16T10:22:12.528Z,10.47
2019-02-16T10:25:04.517Z,8.70
2019-02-16T10:27:44.003Z,8.87
2019-02-16T10:30:38.929Z,9.40
2019-02-16T10:33:14.334Z,8.07
2019-02-16T10:36:09.139Z,6.87
2019-02-16T10:39:04.010Z,7.60
2019-02-16T10:42:12.527Z,7.20
2019-02-16T10:44:58.257Z,7.60
2019-02-16T10:47:42.289Z,8.93
2019-02-16T10:50:36.057Z,8.00
2019-02-16T10:53:20.813Z,7.90
2019-02-16T10:56:15.306Z,6.57
2019-02-16T10:59:10.792Z,7.03
2019-02-16T11:02:03.005Z,6.93
2019-02-16T11:04:57.577Z,7.45
2019-02-16T11:07:46.188Z,7.07
2019-02-16T11:10:44.746Z,7.20
2019-02-16T11:13:27.666Z,7.33
2019-02-16T11:16:20.709Z,5.90
2019-02-16T11:19:02.844Z,6.60
2019-02-16T11:21:51.924Z,7.67
2019-02-16T11:24:43.229Z,6.83
2019-02-16T11:27:41.633Z,6.40
2019-02-16T11:30:37.338Z,6.33
2019-02-16T11:33:18.831Z,6.37
2019-02-16T11:36:14.237Z,6.60
2019-02-16T11:38:48.960Z,5.90
2019-02-16T11:41:42.529Z,6.13
2019-02-16T11:44:21.452Z,6.40
2019-02-16T11:46:58.931Z,6.00
2019-02-16T11:50:06.311Z,6.30
2019-02-16T11:53:13.468Z,6.30
2019-02-16T11:56:08.353Z,6.23
2019-02-16T11:59:15.853Z,5.50
2019-02-16T12:02:04.916Z,5.47
2019-02-16T12:04:53.928Z,6.37
2019-02-16T12:07:42.962Z,6.47
2019-02-16T12:10:40.881Z,7.50
2019-02-16T12:13:29.907Z,5.57
2019-02-16T12:16:09.385Z,5.60
2019-02-16T12:18:58.414Z,5.90
2019-02-16T12:21:57.024Z,7.00
2019-02-16T12:24:42.665Z,7.17
2019-02-16T12:27:23.783Z,5.97
2019-02-16T12:30:14.474Z,8.27
2019-02-16T12:33:03.516Z,7.10
2019-02-16T12:35:58.362Z,7.20
2019-02-16T12:38:34.190Z,6.67
2019-02-16T12:41:38.198Z,6.37
2019-02-16T12:44:33.131Z,6.33
2019-02-16T12:47:15.223Z,6.50
2019-02-16T12:50:07.303Z,7.23
2019-02-16T12:52:56.329Z,5.50
2019-02-16T12:55:42.651Z,6.60
2019-02-16T12:58:40.759Z,6.00
2019-02-16T13:01:28.422Z,6.40
2019-02-16T13:04:25.693Z,6.50
2019-02-16T13:07:14.108Z,5.73
2019-02-16T13:10:02.899Z,6.60
2019-02-16T13:12:54.785Z,5.97
2019-02-16T13:15:42.569Z,6.17
2019-02-16T13:18:30.573Z,6.30
2019-02-16T13:21:18.395Z,6.00
2019-02-16T13:24:05.825Z,6.40
2019-02-16T13:26:54.936Z,7.07
2019-02-16T13:29:42.625Z,6.90
2019-02-16T13:32:31.669Z,6.60
2019-02-16T13:35:29.820Z,6.60
2019-02-16T13:38:18.917Z,7.80
2019-02-16T13:41:01.861Z,6.50
2019-02-16T13:43:46.496Z,8.13
2019-02-16T13:46:41.043Z,8.00
2019-02-16T13:49:25.152Z,7.50
2019-02-16T13:52:13.139Z,7.33
2019-02-16T13:54:53.143Z,7.43
2019-02-16T13:57:46.822Z,8.40
2019-02-16T14:00:26.030Z,7.30
2019-02-16T14:03:03.484Z,8.20
2019-02-16T14:05:44.078Z,8.07
2019-02-16T14:08:24.220Z,7.30
2019-02-16T14:11:17.478Z,8.30
2019-02-16T14:14:01.322Z,7.70
2019-02-16T14:16:38.249Z,7.20
2019-02-16T14:19:10.788Z,7.37
2019-02-16T14:21:40.078Z,7.73
2019-02-16T14:24:11.266Z,8.10
2019-02-16T14:26:41.346Z,8.10
2019-02-16T14:29:12.540Z,9.23
2019-02-16T14:31:44.320Z,8.33
2019-02-16T14:34:14.439Z,8.17
2019-02-16T14:36:52.357Z,8.50
2019-02-16T14:39:33.768Z,8.37
2019-02-16T14:42:03.782Z,8.70
2019-02-16T14:44:33.957Z,8.30
2019-02-16T14:47:04.089Z,8.90
2019-02-16T14:49:34.295Z,8.57
2019-02-16T14:52:04.375Z,7.10
2019-02-16T14:54:34.487Z,8.23
2019-02-16T14:57:04.637Z,7.20
2019-02-16T14:59:34.814Z,7.40
2019-02-16T15:02:04.987Z,8.10
2019-02-16T15:04:35.076Z,6.63
2019-02-16T15:07:05.165Z,7.70
2019-02-16T15:09:35.369Z,7.20
2019-02-16T15:12:05.454Z,8.33
2019-02-16T15:14:35.508Z,7.27
2019-02-16T15:17:05.562Z,8.10
2019-02-16T15:19:35.610Z,8.20
2019-02-16T15:22:05.687Z,9.07
2019-02-16T15:24:36.829Z,8.77
2019-02-16T15:27:06.987Z,8.30
2019-02-16T15:29:37.098Z,8.90
2019-02-16T15:32:07.123Z,7.50
2019-02-16T15:34:37.219Z,9.00
2019-02-16T15:37:07.353Z,8.43
2019-02-16T15:39:37.445Z,8.30
2019-02-16T15:42:07.475Z,8.00
2019-02-16T15:44:37.571Z,9.10
2019-02-16T15:47:07.642Z,9.10
2019-02-16T15:49:37.688Z,8.20
2019-02-16T15:52:07.908Z,8.80
2019-02-16T15:54:40.758Z,8.67
2019-02-16T15:57:10.810Z,8.63
2019-02-16T15:59:41.848Z,8.40
2019-02-16T16:02:11.937Z,8.90
2019-02-16T16:04:42.122Z,8.20
2019-02-16T16:07:18.514Z,8.63
2019-02-16T16:09:56.109Z,9.60
2019-02-16T16:12:48.136Z,9.27
2019-02-16T16:15:41.781Z,8.40
2019-02-16T16:18:26.679Z,8.73
2019-02-16T16:21:15.854Z,8.57
2019-02-16T16:24:17.266Z,8.70
2019-02-16T16:27:09.176Z,8.67
2019-02-16T16:30:09.579Z,9.17
2019-02-16T16:32:51.954Z,9.30
2019-02-16T16:35:43.615Z,8.97
2019-02-16T16:38:27.126Z,8.60
2019-02-16T16:41:16.326Z,9.00
2019-02-16T16:43:53.140Z,10.00
2019-02-16T16:46:37.563Z,8.60
2019-02-16T16:49:35.527Z,9.50
2019-02-16T16:52:22.987Z,9.43
2019-02-16T16:55:11.591Z,8.90
2019-02-16T16:57:52.466Z,8.60
2019-02-16T17:00:41.812Z,8.93
2019-02-16T17:03:35.374Z,8.77
2019-02-16T17:06:38.632Z,9.63
2019-02-16T17:09:29.090Z,9.10
2019-02-16T17:12:16.767Z,9.10
2019-02-16T17:15:18.428Z,9.87
2019-02-16T17:18:00.311Z,14.63
2019-02-16T17:21:00.597Z,14.17
2019-02-16T17:23:46.987Z,13.67
2019-02-16T17:26:42.778Z,24.20
2019-02-16T17:29:34.761Z,29.60
2019-02-16T17:32:22.667Z,30.07
2019-02-16T17:35:21.815Z,32.50
2019-02-16T17:38:22.639Z,30.47
2019-02-16T17:41:10.571Z,26.40
2019-02-16T17:43:52.607Z,22.40
2019-02-16T17:46:41.735Z,19.03
2019-02-16T17:49:48.548Z,19.40
2019-02-16T17:52:26.598Z,20.20
2019-02-16T17:55:23.476Z,20.97
2019-02-16T17:58:14.572Z,18.40
2019-02-16T18:00:59.843Z,18.03
2019-02-16T18:03:47.047Z,19.63
2019-02-16T18:06:36.218Z,20.83
2019-02-16T18:09:39.129Z,19.50
2019-02-16T18:12:43.237Z,20.17
2019-02-16T18:15:42.876Z,20.13
2019-02-16T18:18:34.789Z,18.70
2019-02-16T18:21:42.110Z,15.70
2019-02-16T18:24:30.023Z,16.33
2019-02-16T18:27:13.526Z,20.57
2019-02-16T18:30:04.602Z,15.57
2019-02-16T18:32:54.863Z,16.00
2019-02-16T18:36:01.899Z,14.67
2019-02-16T18:39:02.806Z,21.87
2019-02-16T18:41:55.938Z,16.37
2019-02-16T18:44:43.471Z,15.73
2019-02-16T18:47:32.692Z,15.97
2019-02-16T18:50:20.203Z,15.10
2019-02-16T18:53:12.048Z,14.40
2019-02-16T18:56:04.299Z,15.27
2019-02-16T18:58:59.499Z,15.80
2019-02-16T19:01:36.987Z,17.20
2019-02-16T19:04:28.435Z,17.83
2019-02-16T19:07:04.171Z,19.82
2019-02-16T19:09:53.603Z,19.57
2019-02-16T19:12:45.866Z,20.03
2019-02-16T19:15:32.199Z,16.67
2019-02-16T19:18:22.567Z,20.27
2019-02-16T19:21:30.371Z,17.10
2019-02-16T19:24:18.473Z,18.10
2019-02-16T19:27:16.747Z,17.90
2019-02-16T19:30:00.228Z,16.93
2019-02-16T19:32:46.781Z,19.50
2019-02-16T19:35:42.008Z,18.17
2019-02-16T19:38:36.941Z,17.90
2019-02-16T19:41:38.059Z,17.50
2019-02-16T19:44:27.304Z,30.10
2019-02-16T19:47:33.579Z,23.47
2019-02-16T19:50:21.831Z,18.93
2019-02-16T19:53:27.053Z,21.50
2019-02-16T19:56:19.154Z,22.90
2019-02-16T19:59:11.700Z,26.77
2019-02-16T20:02:10.143Z,29.20
2019-02-16T20:05:02.713Z,52.83
2019-02-16T20:07:49.955Z,34.00
2019-02-16T20:10:54.580Z,25.67
2019-02-16T20:13:43.627Z,28.20
2019-02-16T20:16:33.318Z,23.60
2019-02-16T20:19:32.593Z,32.70
2019-02-16T20:22:27.955Z,26.77
2019-02-16T20:25:16.529Z,23.37
2019-02-16T20:28:11.745Z,22.87
2019-02-16T20:31:04.231Z,35.90
2019-02-16T20:33:52.276Z,50.10
2019-02-16T20:36:47.988Z,54.37
2019-02-16T20:39:52.728Z,29.60
2019-02-16T20:42:43.922Z,29.00
2019-02-16T20:45:51.179Z,33.03
2019-02-16T20:48:47.461Z,36.13
2019-02-16T20:51:39.617Z,26.80
2019-02-16T20:54:18.705Z,27.93
2019-02-16T20:57:08.716Z,28.97
2019-02-16T20:59:55.184Z,26.57
2019-02-16T21:02:53.371Z,28.57
2019-02-16T21:06:00.682Z,27.37
2019-02-16T21:08:44.845Z,27.83
2019-02-16T21:11:46.520Z,26.23
2019-02-16T21:14:44.783Z,25.90
2019-02-16T21:17:25.565Z,24.33
2019-02-16T21:20:15.876Z,23.37
2019-02-16T21:23:21.565Z,26.87
2019-02-16T21:26:19.584Z,23.30
2019-02-16T21:29:12.912Z,24.83
2019-02-16T21:32:02.598Z,25.07
2019-02-16T21:34:53.742Z,26.10
2019-02-16T21:37:47.614Z,24.10
2019-02-16T21:40:40.938Z,24.10
2019-02-16T21:43:30.915Z,23.67
2019-02-16T21:46:21.749Z,25.10
2019-02-16T21:49:10.950Z,21.57
2019-02-16T21:52:06.389Z,18.83
2019-02-16T21:54:57.752Z,18.13
2019-02-16T21:57:41.754Z,19.67
2019-02-16T22:00:38.003Z,20.07
2019-02-16T22:03:28.211Z,19.87
2019-02-16T22:06:16.181Z,26.00
2019-02-16T22:09:06.855Z,24.27
2019-02-16T22:11:57.029Z,23.23
2019-02-16T22:14:32.369Z,23.07
2019-02-16T22:17:02.602Z,22.13
2019-02-16T22:19:34.224Z,20.27
2019-02-16T22:22:06.269Z,22.97
2019-02-16T22:24:38.287Z,20.53
2019-02-16T22:27:13.061Z,20.77
2019-02-16T22:29:42.792Z,23.03
2019-02-16T22:32:14.638Z,22.33
2019-02-16T22:34:44.064Z,21.70
2019-02-16T22:37:15.756Z,22.07
2019-02-16T22:39:45.871Z,24.33
2019-02-16T22:42:20.107Z,23.37
2019-02-16T22:44:52.518Z,22.37
2019-02-16T22:47:22.658Z,23.30
2019-02-16T22:49:55.698Z,23.57
2019-02-16T22:52:30.128Z,21.67
2019-02-16T22:55:00.993Z,21.67
2019-02-16T22:57:33.082Z,21.40
2019-02-16T23:00:03.198Z,21.10
2019-02-16T23:02:34.852Z,19.73
2019-02-16T23:05:06.761Z,18.17
2019-02-16T23:07:36.855Z,20.97
2019-02-16T23:10:10.786Z,21.10
2019-02-16T23:12:40.863Z,17.27
2019-02-16T23:15:11.704Z,16.93
2019-02-16T23:17:44.897Z,17.30
2019-02-16T23:20:15.966Z,16.00
2019-02-16T23:22:49.004Z,16.00
2019-02-16T23:25:20.591Z,16.00
2019-02-16T23:27:50.704Z,16.47
2019-02-16T23:30:20.771Z,16.30
2019-02-16T23:32:52.073Z,16.93
2019-02-16T23:35:24.247Z,15.70
2019-02-16T23:37:55.357Z,16.90
2019-02-16T23:40:25.463Z,16.70
2019-02-16T23:42:55.631Z,17.13
2019-02-16T23:45:25.807Z,16.70
2019-02-16T23:47:56.929Z,16.50
2019-02-16T23:50:27.023Z,14.37
2019-02-16T23:53:01.807Z,15.87
2019-02-16T23:55:32.588Z,14.97
2019-02-16T23:58:04.380Z,14.27
